createdAt,value
2023-04-06T00:00:25.134Z,27.35
2023-04-06T00:02:53.163Z,15.02
2023-04-06T00:05:21.083Z,13.20
2023-04-06T00:07:48.055Z,11.75
2023-04-06T00:10:14.787Z,12.18
2023-04-06T00:12:41.606Z,11.95
2023-04-06T00:15:08.867Z,12.38
2023-04-06T00:17:35.837Z,13.20
2023-04-06T00:20:02.607Z,13.35
2023-04-06T00:22:29.523Z,15.75
2023-04-06T00:24:56.326Z,18.33
2023-04-06T00:27:23.044Z,19.55
2023-04-06T00:29:49.957Z,15.50
2023-04-06T00:32:17.293Z,14.45
2023-04-06T00:34:44.140Z,13.23
2023-04-06T00:37:12.703Z,14.63
2023-04-06T00:39:39.450Z,14.20
2023-04-06T00:42:10.807Z,13.38
2023-04-06T00:44:37.739Z,13.25
2023-04-06T00:47:04.683Z,12.85
2023-04-06T00:49:31.487Z,13.20
2023-04-06T00:51:58.318Z,12.40
2023-04-06T00:54:25.123Z,14.32
2023-04-06T00:56:51.862Z,13.80
2023-04-06T00:59:18.805Z,13.70
2023-04-06T01:01:45.791Z,13.85
2023-04-06T01:04:23.877Z,13.57
2023-04-06T01:06:51.203Z,12.50
2023-04-06T01:09:18.428Z,13.55
2023-04-06T01:11:45.558Z,13.68
2023-04-06T01:14:12.382Z,13.65
2023-04-06T01:16:39.230Z,14.85
2023-04-06T01:19:11.005Z,13.68
2023-04-06T01:21:38.679Z,14.30
2023-04-06T01:24:06.187Z,16.20
2023-04-06T01:26:33.543Z,13.90
2023-04-06T01:29:00.469Z,13.73
2023-04-06T01:31:27.492Z,15.18
2023-04-06T01:33:54.499Z,14.32
2023-04-06T01:36:21.672Z,14.05
2023-04-06T01:38:48.416Z,14.05
2023-04-06T01:41:15.570Z,15.95
2023-04-06T01:43:42.278Z,13.43
2023-04-06T01:46:09.119Z,12.90
2023-04-06T01:48:36.358Z,12.85
2023-04-06T01:51:03.352Z,14.13
2023-04-06T01:53:30.210Z,13.75
2023-04-06T01:55:57.055Z,13.40
2023-04-06T01:58:23.780Z,13.05
2023-04-06T02:00:50.572Z,13.45
2023-04-06T02:03:17.421Z,13.23
2023-04-06T02:05:44.215Z,13.73
2023-04-06T02:08:10.943Z,13.73
2023-04-06T02:10:37.833Z,13.10
2023-04-06T02:13:04.635Z,13.47
2023-04-06T02:15:31.389Z,14.52
2023-04-06T02:17:58.679Z,14.00
2023-04-06T02:20:25.590Z,14.18
2023-04-06T02:22:53.495Z,14.80
2023-04-06T02:25:20.350Z,15.40
2023-04-06T02:27:47.133Z,14.13
2023-04-06T02:30:14.068Z,13.45
2023-04-06T02:32:41.581Z,14.20
2023-04-06T02:35:08.765Z,14.47
2023-04-06T02:37:35.486Z,14.18
2023-04-06T02:40:02.302Z,14.47
2023-04-06T02:42:29.014Z,14.47
2023-04-06T02:44:55.722Z,14.30
2023-04-06T02:47:22.609Z,13.60
2023-04-06T02:49:49.322Z,15.03
2023-04-06T02:52:16.080Z,14.60
2023-04-06T02:54:42.923Z,13.93
2023-04-06T02:57:09.638Z,14.02
2023-04-06T02:59:36.984Z,15.43
2023-04-06T03:02:03.832Z,13.35
2023-04-06T03:04:30.813Z,13.00
2023-04-06T03:07:00.748Z,14.48
2023-04-06T03:09:28.706Z,13.77
2023-04-06T03:11:56.314Z,14.20
2023-04-06T03:14:23.438Z,13.68
2023-04-06T03:16:50.530Z,14.23
2023-04-06T03:19:17.260Z,13.02
2023-04-06T03:21:44.055Z,13.27
2023-04-06T03:24:11.020Z,11.93
2023-04-06T03:26:37.823Z,13.90
2023-04-06T03:29:04.667Z,12.77
2023-04-06T03:31:31.524Z,13.13
2023-04-06T03:33:58.341Z,12.98
2023-04-06T03:36:25.077Z,12.82
2023-04-06T03:38:51.939Z,13.80
2023-04-06T03:41:18.747Z,12.57
2023-04-06T03:43:45.984Z,12.93
2023-04-06T03:46:12.971Z,12.90
2023-04-06T03:48:39.784Z,13.73
2023-04-06T03:51:06.536Z,14.30
2023-04-06T03:53:33.370Z,14.23
2023-04-06T03:56:00.916Z,14.30
2023-04-06T03:58:28.391Z,14.27
2023-04-06T04:00:55.229Z,14.23
2023-04-06T04:03:24.638Z,15.20
2023-04-06T04:05:52.095Z,14.85
2023-04-06T04:08:18.936Z,13.83
2023-04-06T04:10:45.656Z,13.27
2023-04-06T04:13:12.367Z,14.07
2023-04-06T04:15:39.088Z,13.43
2023-04-06T04:18:05.946Z,13.43
2023-04-06T04:20:32.798Z,13.83
2023-04-06T04:22:59.499Z,12.43
2023-04-06T04:25:26.397Z,12.73
2023-04-06T04:27:53.406Z,13.10
2023-04-06T04:30:20.157Z,13.07
2023-04-06T04:32:46.905Z,12.63
2023-04-06T04:35:14.754Z,12.50
2023-04-06T04:37:42.174Z,14.40
2023-04-06T04:40:09.605Z,12.10
2023-04-06T04:42:36.492Z,12.43
2023-04-06T04:45:03.321Z,12.33
2023-04-06T04:47:30.184Z,13.67
2023-04-06T04:49:57.122Z,13.47
2023-04-06T04:52:23.831Z,13.97
2023-04-06T04:54:50.626Z,14.03
2023-04-06T04:57:17.412Z,13.47
2023-04-06T04:59:44.361Z,13.70
2023-04-06T05:02:11.168Z,14.50
2023-04-06T05:04:38.108Z,15.17
2023-04-06T05:07:05.457Z,13.60
2023-04-06T05:09:32.591Z,12.73
2023-04-06T05:12:00.760Z,14.23
2023-04-06T05:14:30.866Z,14.17
2023-04-06T05:16:58.252Z,13.87
2023-04-06T05:19:25.043Z,13.63
2023-04-06T05:21:51.829Z,13.63
2023-04-06T05:24:18.553Z,13.57
2023-04-06T05:26:45.832Z,12.83
2023-04-06T05:29:12.675Z,13.83
2023-04-06T05:31:39.392Z,12.77
2023-04-06T05:34:06.477Z,14.10
2023-04-06T05:36:33.424Z,13.10
2023-04-06T05:39:00.529Z,12.63
2023-04-06T05:41:27.405Z,14.07
2023-04-06T05:43:54.190Z,13.67
2023-04-06T05:46:21.343Z,15.07
2023-04-06T05:48:48.188Z,13.57
2023-04-06T05:51:14.987Z,14.87
2023-04-06T05:53:41.861Z,15.50
2023-04-06T05:56:08.673Z,15.77
2023-04-06T05:58:35.601Z,15.03
2023-04-06T06:01:02.480Z,15.97
2023-04-06T06:03:29.860Z,17.57
2023-04-06T06:06:05.323Z,14.20
2023-04-06T06:08:32.608Z,14.50
2023-04-06T06:11:00.523Z,17.43
2023-04-06T06:13:27.278Z,16.90
2023-04-06T06:15:54.590Z,15.23
2023-04-06T06:18:21.365Z,15.20
2023-04-06T06:20:48.099Z,14.77
2023-04-06T06:23:15.753Z,16.40
2023-04-06T06:25:42.545Z,16.90
2023-04-06T06:28:09.350Z,14.10
2023-04-06T06:30:36.257Z,14.30
2023-04-06T06:33:03.289Z,13.90
2023-04-06T06:35:30.829Z,14.00
2023-04-06T06:37:57.659Z,14.20
2023-04-06T06:40:25.390Z,15.00
2023-04-06T06:42:52.563Z,14.33
2023-04-06T06:45:19.887Z,13.03
2023-04-06T06:47:47.289Z,13.73
2023-04-06T06:50:14.168Z,14.83
2023-04-06T06:52:41.575Z,13.53
2023-04-06T06:55:09.518Z,16.00
2023-04-06T06:57:36.247Z,13.83
2023-04-06T07:00:03.184Z,12.93
2023-04-06T07:02:30.151Z,14.27
2023-04-06T07:04:57.112Z,14.80
2023-04-06T07:07:24.165Z,18.00
2023-04-06T07:09:51.015Z,19.90
2023-04-06T07:12:17.812Z,17.75
2023-04-06T07:14:44.680Z,15.15
2023-04-06T07:17:11.499Z,15.77
2023-04-06T07:19:38.309Z,16.15
2023-04-06T07:22:05.814Z,16.67
2023-04-06T07:24:32.592Z,12.55
2023-04-06T07:27:00.176Z,17.55
2023-04-06T07:29:27.027Z,13.75
2023-04-06T07:31:55.053Z,12.65
2023-04-06T07:34:21.970Z,13.02
2023-04-06T07:36:48.893Z,15.30
2023-04-06T07:39:15.883Z,13.52
2023-04-06T07:41:43.071Z,15.30
2023-04-06T07:44:10.244Z,18.13
2023-04-06T07:46:37.717Z,17.58
2023-04-06T07:49:04.614Z,14.75
2023-04-06T07:51:32.381Z,14.07
2023-04-06T07:53:59.178Z,13.85
2023-04-06T07:56:26.307Z,14.35
2023-04-06T07:58:54.533Z,16.17
2023-04-06T08:01:21.394Z,15.90
2023-04-06T08:03:48.454Z,15.20
2023-04-06T08:06:15.751Z,17.90
2023-04-06T08:08:43.063Z,12.02
2023-04-06T08:11:10.218Z,12.15
2023-04-06T08:13:37.037Z,12.70
2023-04-06T08:16:03.985Z,12.40
2023-04-06T08:18:31.106Z,12.68
2023-04-06T08:20:58.282Z,12.77
2023-04-06T08:23:25.167Z,13.02
2023-04-06T08:25:54.423Z,12.80
2023-04-06T08:28:22.395Z,13.00
2023-04-06T08:30:49.185Z,13.88
2023-04-06T08:33:16.000Z,14.20
2023-04-06T08:35:42.942Z,13.48
2023-04-06T08:38:09.680Z,13.68
2023-04-06T08:40:40.045Z,15.02
2023-04-06T08:43:09.742Z,12.73
2023-04-06T08:45:36.986Z,13.75
2023-04-06T08:48:04.429Z,12.38
2023-04-06T08:50:31.533Z,12.45
2023-04-06T08:52:58.419Z,12.15
2023-04-06T08:55:25.231Z,12.43
2023-04-06T08:57:54.566Z,12.43
2023-04-06T09:00:22.886Z,13.95
2023-04-06T09:02:50.754Z,12.73
2023-04-06T09:05:17.739Z,13.00
2023-04-06T09:07:44.567Z,12.82
2023-04-06T09:10:11.662Z,14.82
2023-04-06T09:12:38.502Z,20.42
2023-04-06T09:15:06.356Z,13.32
2023-04-06T09:17:37.855Z,13.65
2023-04-06T09:20:06.041Z,13.02
2023-04-06T09:22:39.678Z,12.27
2023-04-06T09:25:07.539Z,11.95
2023-04-06T09:27:35.860Z,11.90
2023-04-06T09:30:06.522Z,12.20
2023-04-06T09:32:33.466Z,11.38
2023-04-06T09:35:10.066Z,10.15
2023-04-06T09:37:37.094Z,10.45
2023-04-06T09:40:05.387Z,10.60
2023-04-06T09:42:32.177Z,10.65
2023-04-06T09:44:59.000Z,10.43
2023-04-06T09:47:29.296Z,11.30
2023-04-06T09:50:00.925Z,11.43
2023-04-06T09:52:32.319Z,10.80
2023-04-06T09:55:02.235Z,10.80
2023-04-06T09:57:34.354Z,11.20
2023-04-06T10:00:12.886Z,11.32
2023-04-06T10:02:48.748Z,10.93
2023-04-06T10:05:27.127Z,10.43
2023-04-06T10:08:00.471Z,10.95
2023-04-06T10:10:29.421Z,12.40
2023-04-06T10:12:56.886Z,9.52
2023-04-06T10:15:23.696Z,10.75
2023-04-06T10:17:50.631Z,13.35
2023-04-06T10:20:22.130Z,9.73
2023-04-06T10:23:15.668Z,11.07
2023-04-06T10:25:56.004Z,11.73
2023-04-06T10:28:22.961Z,12.13
2023-04-06T10:30:49.868Z,12.23
2023-04-06T10:33:21.372Z,12.05
2023-04-06T10:35:48.322Z,14.30
2023-04-06T10:38:15.611Z,11.02
2023-04-06T10:40:48.995Z,11.88
2023-04-06T10:43:21.058Z,18.08
2023-04-06T10:45:59.454Z,16.30
2023-04-06T10:48:27.269Z,17.88
2023-04-06T10:50:54.207Z,14.15
2023-04-06T10:53:27.862Z,13.88
2023-04-06T10:55:56.538Z,12.57
2023-04-06T10:58:29.964Z,12.57
2023-04-06T11:01:00.976Z,12.13
2023-04-06T11:03:28.354Z,11.80
2023-04-06T11:05:55.248Z,11.68
2023-04-06T11:08:28.219Z,14.48
2023-04-06T11:11:17.135Z,12.43
2023-04-06T11:13:57.732Z,12.93
2023-04-06T11:16:26.718Z,14.20
2023-04-06T11:18:54.658Z,11.75
2023-04-06T11:21:34.395Z,10.60
2023-04-06T11:24:17.094Z,11.00
2023-04-06T11:26:57.176Z,10.10
2023-04-06T11:29:27.555Z,11.60
2023-04-06T11:31:55.389Z,11.55
2023-04-06T11:34:25.715Z,11.67
2023-04-06T11:37:00.407Z,11.35
2023-04-06T11:39:28.468Z,11.38
2023-04-06T11:42:00.298Z,11.98
2023-04-06T11:44:33.085Z,12.70
2023-04-06T11:47:00.557Z,11.10
2023-04-06T11:49:30.795Z,10.57
2023-04-06T11:51:58.549Z,11.45
2023-04-06T11:54:38.994Z,9.95
2023-04-06T11:57:06.423Z,11.05
2023-04-06T11:59:34.011Z,12.18
2023-04-06T12:02:00.975Z,9.98
2023-04-06T12:04:27.870Z,11.40
2023-04-06T12:06:54.718Z,10.88
2023-04-06T12:09:21.594Z,10.65
2023-04-06T12:11:48.652Z,10.60
2023-04-06T12:14:15.577Z,13.95
2023-04-06T12:16:42.313Z,12.80
2023-04-06T12:19:09.279Z,11.57
2023-04-06T12:21:38.345Z,11.30
2023-04-06T12:24:05.876Z,12.18
2023-04-06T12:26:32.811Z,11.38
2023-04-06T12:29:07.814Z,11.52
2023-04-06T12:31:36.641Z,11.10
2023-04-06T12:34:04.811Z,10.75
2023-04-06T12:38:59.655Z,10.77
2023-04-06T12:41:26.659Z,10.55
2023-04-06T12:43:53.477Z,11.23
2023-04-06T12:46:21.088Z,12.98
2023-04-06T12:48:48.083Z,10.20
2023-04-06T12:51:14.889Z,10.50
2023-04-06T12:53:41.752Z,11.75
2023-04-06T12:56:16.751Z,14.07
2023-04-06T12:58:43.942Z,12.95
2023-04-06T13:01:12.649Z,10.68
2023-04-06T13:03:40.118Z,13.88
2023-04-06T13:06:07.274Z,10.20
2023-04-06T13:08:34.165Z,10.90
2023-04-06T13:11:00.977Z,10.48
2023-04-06T13:13:28.782Z,11.43
2023-04-06T13:16:00.194Z,9.95
2023-04-06T13:18:27.346Z,9.68
2023-04-06T13:20:54.205Z,10.60
2023-04-06T13:23:21.062Z,9.80
2023-04-06T13:25:47.837Z,10.35
2023-04-06T13:28:15.044Z,12.10
2023-04-06T13:30:41.865Z,9.65
2023-04-06T13:33:08.810Z,9.82
2023-04-06T13:35:37.055Z,9.98
2023-04-06T13:38:03.874Z,10.50
2023-04-06T13:40:30.768Z,12.43
2023-04-06T13:42:57.600Z,14.13
2023-04-06T13:45:24.622Z,12.35
2023-04-06T13:47:51.958Z,10.30
2023-04-06T13:50:19.246Z,10.70
2023-04-06T13:52:46.174Z,12.68
2023-04-06T13:55:12.992Z,10.02
2023-04-06T13:57:39.899Z,9.32
2023-04-06T14:00:08.319Z,10.05
2023-04-06T14:02:35.352Z,9.88
2023-04-06T14:05:02.270Z,13.10
2023-04-06T14:07:29.081Z,10.68
2023-04-06T14:09:55.874Z,10.40
2023-04-06T14:12:22.920Z,10.35
2023-04-06T14:14:49.722Z,13.02
2023-04-06T14:17:16.546Z,10.20
2023-04-06T14:19:44.283Z,14.10
2023-04-06T14:22:11.536Z,11.40
2023-04-06T14:24:38.758Z,10.75
2023-04-06T14:27:05.605Z,10.52
2023-04-06T14:29:32.342Z,12.82
2023-04-06T14:32:00.975Z,10.40
2023-04-06T14:34:28.302Z,9.85
2023-04-06T14:36:55.176Z,12.35
2023-04-06T14:39:22.024Z,12.43
2023-04-06T14:41:49.893Z,12.40
2023-04-06T14:44:17.894Z,13.10
2023-04-06T14:46:44.963Z,14.70
2023-04-06T14:49:12.378Z,12.68
2023-04-06T14:51:40.115Z,13.05
2023-04-06T14:54:06.881Z,13.25
2023-04-06T14:56:33.830Z,12.82
2023-04-06T14:59:02.493Z,12.98
2023-04-06T15:01:29.321Z,13.25
2023-04-06T15:03:56.460Z,12.93
2023-04-06T15:06:23.380Z,12.68
2023-04-06T15:08:50.980Z,11.95
2023-04-06T15:11:17.906Z,12.30
2023-04-06T15:13:45.347Z,11.75
2023-04-06T15:16:12.486Z,12.18
2023-04-06T15:18:39.412Z,11.68
2023-04-06T15:21:07.289Z,12.55
2023-04-06T15:23:35.438Z,10.82
2023-04-06T15:26:02.454Z,10.93
2023-04-06T15:28:29.846Z,11.57
2023-04-06T15:30:56.936Z,11.57
2023-04-06T15:33:24.128Z,12.48
2023-04-06T15:35:51.217Z,11.30
2023-04-06T15:38:17.982Z,11.25
2023-04-06T15:40:49.073Z,11.77
2023-04-06T15:43:15.926Z,12.45
2023-04-06T15:45:42.754Z,11.40
2023-04-06T15:48:10.052Z,11.77
2023-04-06T15:50:36.868Z,16.05
2023-04-06T15:53:03.720Z,11.38
2023-04-06T15:55:30.764Z,11.93
2023-04-06T15:57:57.484Z,13.25
2023-04-06T16:00:25.453Z,12.27
2023-04-06T16:02:52.583Z,13.82
2023-04-06T16:05:19.578Z,14.20
2023-04-06T16:07:46.347Z,13.13
2023-04-06T16:10:13.196Z,11.75
2023-04-06T16:12:42.507Z,12.65
2023-04-06T16:17:36.566Z,13.23
2023-04-06T16:20:04.038Z,11.95
2023-04-06T16:22:30.854Z,12.38
2023-04-06T16:24:58.911Z,12.27
2023-04-06T16:27:25.852Z,13.60
2023-04-06T16:29:52.781Z,10.73
2023-04-06T16:32:19.664Z,13.48
2023-04-06T16:34:47.506Z,13.00
2023-04-06T16:37:14.291Z,11.55
2023-04-06T16:39:41.169Z,12.27
2023-04-06T16:42:07.890Z,11.48
2023-04-06T16:44:34.957Z,11.20
2023-04-06T16:47:01.812Z,10.23
2023-04-06T16:49:28.784Z,11.07
2023-04-06T16:51:55.570Z,11.35
2023-04-06T16:54:22.445Z,11.25
2023-04-06T16:56:49.173Z,14.23
2023-04-06T16:59:16.116Z,13.75
2023-04-06T17:01:43.225Z,12.00
2023-04-06T17:04:10.331Z,11.60
2023-04-06T17:06:37.216Z,11.10
2023-04-06T17:09:04.138Z,15.98
2023-04-06T17:11:43.564Z,12.10
2023-04-06T17:14:13.234Z,11.82
2023-04-06T17:16:40.005Z,11.73
2023-04-06T17:19:07.283Z,11.23
2023-04-06T17:21:34.168Z,12.57
2023-04-06T17:24:01.039Z,11.85
2023-04-06T17:26:27.832Z,12.07
2023-04-06T17:28:54.839Z,11.43
2023-04-06T17:31:22.578Z,9.48
2023-04-06T17:33:49.975Z,12.27
2023-04-06T17:36:16.841Z,10.50
2023-04-06T17:38:45.881Z,12.98
2023-04-06T17:41:13.320Z,11.27
2023-04-06T17:43:40.389Z,11.23
2023-04-06T17:46:07.257Z,12.23
2023-04-06T17:48:34.428Z,12.10
2023-04-06T17:51:01.541Z,11.05
2023-04-06T17:53:34.569Z,11.83
2023-04-06T17:56:04.756Z,12.25
2023-04-06T17:58:31.714Z,10.45
2023-04-06T18:00:58.457Z,10.32
2023-04-06T18:03:25.344Z,11.35
2023-04-06T18:05:52.319Z,11.20
2023-04-06T18:08:19.092Z,13.23
2023-04-06T18:10:46.454Z,11.25
2023-04-06T18:13:13.732Z,14.98
2023-04-06T18:15:40.515Z,12.20
2023-04-06T18:18:08.138Z,10.88
2023-04-06T18:20:39.930Z,11.75
2023-04-06T18:23:06.695Z,11.32
2023-04-06T18:25:38.610Z,12.50
2023-04-06T18:28:05.978Z,11.63
2023-04-06T18:30:32.761Z,10.57
2023-04-06T18:33:00.710Z,13.27
2023-04-06T18:35:27.540Z,11.13
2023-04-06T18:37:54.270Z,11.65
2023-04-06T18:40:34.404Z,13.38
2023-04-06T18:43:01.997Z,12.60
2023-04-06T18:45:28.833Z,12.18
2023-04-06T18:47:57.009Z,10.70
2023-04-06T18:50:24.188Z,12.35
2023-04-06T18:52:52.205Z,10.80
2023-04-06T18:55:20.029Z,11.65
2023-04-06T18:57:47.089Z,10.45
2023-04-06T19:00:15.129Z,11.70
2023-04-06T19:02:44.567Z,10.80
2023-04-06T19:05:12.291Z,10.68
2023-04-06T19:07:39.723Z,12.60
2023-04-06T19:10:07.315Z,13.75
2023-04-06T19:12:38.956Z,14.55
2023-04-06T19:15:08.000Z,10.57
2023-04-06T19:17:35.221Z,10.95
2023-04-06T19:20:02.771Z,11.77
2023-04-06T19:22:29.688Z,12.65
2023-04-06T19:24:56.545Z,11.05
2023-04-06T19:27:23.355Z,12.32
2023-04-06T19:29:50.206Z,10.85
2023-04-06T19:32:17.338Z,10.18
2023-04-06T19:34:44.292Z,10.48
2023-04-06T19:37:11.395Z,11.95
2023-04-06T19:39:38.424Z,12.13
2023-04-06T19:42:05.182Z,13.88
2023-04-06T19:44:32.392Z,14.48
2023-04-06T19:46:59.402Z,12.32
2023-04-06T19:49:28.457Z,11.55
2023-04-06T19:51:55.758Z,11.32
2023-04-06T19:54:23.604Z,11.38
2023-04-06T19:56:50.534Z,11.35
2023-04-06T19:59:17.913Z,11.00
2023-04-06T20:01:45.664Z,12.18
2023-04-06T20:04:13.188Z,10.98
2023-04-06T20:06:40.162Z,11.20
2023-04-06T20:09:07.077Z,12.35
2023-04-06T20:11:35.682Z,11.68
2023-04-06T20:14:02.828Z,10.80
2023-04-06T20:16:29.791Z,14.60
2023-04-06T20:18:56.572Z,12.38
2023-04-06T20:21:23.280Z,12.38
2023-04-06T20:23:50.201Z,12.63
2023-04-06T20:26:16.954Z,12.25
2023-04-06T20:28:43.725Z,12.43
2023-04-06T20:31:10.908Z,15.93
2023-04-06T20:33:39.836Z,12.80
2023-04-06T20:36:06.734Z,11.93
2023-04-06T20:38:34.043Z,11.25
2023-04-06T20:41:02.139Z,10.77
2023-04-06T20:43:29.664Z,11.32
2023-04-06T20:45:57.808Z,13.07
2023-04-06T20:48:25.521Z,12.23
2023-04-06T20:50:52.927Z,12.40
2023-04-06T20:53:21.002Z,11.18
2023-04-06T20:55:47.940Z,13.73
2023-04-06T20:58:20.899Z,15.45
2023-04-06T21:00:49.720Z,13.27
2023-04-06T21:03:17.620Z,12.00
2023-04-06T21:06:00.015Z,12.80
2023-04-06T21:08:26.802Z,12.63
2023-04-06T21:10:53.555Z,14.40
2023-04-06T21:13:20.543Z,12.00
2023-04-06T21:15:47.366Z,11.30
2023-04-06T21:18:14.131Z,12.52
2023-04-06T21:20:41.029Z,12.43
2023-04-06T21:23:07.773Z,12.55
2023-04-06T21:25:37.101Z,12.63
2023-04-06T21:28:04.233Z,12.52
2023-04-06T21:30:36.971Z,12.70
2023-04-06T21:33:05.056Z,12.02
2023-04-06T21:35:31.934Z,12.23
2023-04-06T21:37:58.715Z,16.67
2023-04-06T21:40:25.613Z,21.90
2023-04-06T21:42:52.423Z,12.98
2023-04-06T21:45:19.147Z,11.82
2023-04-06T21:47:46.125Z,12.55
2023-04-06T21:50:12.885Z,13.43
2023-04-06T21:52:40.271Z,16.02
2023-04-06T21:55:07.728Z,13.93
2023-04-06T21:57:34.505Z,13.70
2023-04-06T22:00:02.221Z,12.25
2023-04-06T22:02:29.287Z,11.32
2023-04-06T22:04:56.278Z,12.07
2023-04-06T22:07:23.186Z,12.60
2023-04-06T22:09:53.740Z,11.57
2023-04-06T22:12:20.690Z,10.85
2023-04-06T22:14:47.442Z,11.45
2023-04-06T22:17:14.242Z,11.43
2023-04-06T22:19:40.974Z,12.18
2023-04-06T22:22:07.684Z,12.27
2023-04-06T22:24:34.632Z,12.13
2023-04-06T22:27:01.723Z,12.57
2023-04-06T22:29:28.510Z,12.70
2023-04-06T22:31:56.615Z,12.35
2023-04-06T22:34:23.349Z,12.45
2023-04-06T22:36:50.216Z,11.73
2023-04-06T22:39:17.335Z,11.75
2023-04-06T22:41:45.092Z,11.77
2023-04-06T22:44:11.842Z,12.25
2023-04-06T22:46:38.914Z,11.93
2023-04-06T22:49:06.008Z,14.05
2023-04-06T22:51:32.906Z,12.18
2023-04-06T22:53:59.882Z,11.90
2023-04-06T22:56:27.285Z,11.55
2023-04-06T22:58:56.076Z,11.70
2023-04-06T23:01:23.006Z,12.40
2023-04-06T23:03:50.742Z,11.88
2023-04-06T23:06:17.490Z,12.20
2023-04-06T23:08:44.403Z,13.43
2023-04-06T23:11:11.222Z,12.93
2023-04-06T23:13:38.030Z,11.63
2023-04-06T23:16:05.205Z,12.30
2023-04-06T23:18:31.922Z,11.50
2023-04-06T23:20:58.718Z,13.95
2023-04-06T23:23:25.632Z,13.88
2023-04-06T23:25:52.462Z,11.50
2023-04-06T23:28:19.214Z,12.60
2023-04-06T23:30:46.269Z,12.45
2023-04-06T23:33:13.056Z,12.50
2023-04-06T23:35:39.793Z,12.48
2023-04-06T23:38:06.722Z,11.93
2023-04-06T23:40:33.438Z,11.65
2023-04-06T23:43:00.218Z,12.05
2023-04-06T23:45:27.249Z,11.90
2023-04-06T23:47:54.364Z,12.32
2023-04-06T23:50:21.254Z,11.90
2023-04-06T23:52:48.203Z,11.38
2023-04-06T23:55:14.963Z,11.70
2023-04-06T23:57:41.804Z,11.95
